Time;durP1;ratioP1;P1;durP2;ratioP2;P2;SDS_P1;SDS_P2;PMS_P1;PMS_P2;Temp;Humidity;BMP_temperature;BMP_pressure;BME280_temperature;BME280_humidity;BME280_pressure;Samples;Min_cycle;Max_cycle;Signal;HPM_P1;HPM_P2
2023/12/11 00:07:03;;;;;;;45.50;19.80;;;;;;;2.09;100.00;97704.01;436201;1251;98464;-39
2023/12/11 00:17:10;;;;;;;28.60;13.40;;;;;;;2.09;100.00;97677.26;436356;1253;113164;-38
2023/12/11 00:27:18;;;;;;;27.10;13.40;;;;;;;2.16;100.00;97667.05;436313;1248;107441;-40
2023/12/11 00:47:30;;;;;;;24.90;12.20;;;;;;;2.24;100.00;97654.09;435829;1248;756824;-38
2023/12/11 00:57:38;;;;;;;31.50;13.20;;;;;;;2.29;100.00;97642.64;436489;1254;99205;-38
2023/12/11 01:07:45;;;;;;;27.30;10.40;;;;;;;2.27;100.00;97620.90;436544;1248;111324;-38
2023/12/11 01:27:59;;;;;;;19.10;8.90;;;;;;;2.34;100.00;97602.58;436469;1248;99199;-39
2023/12/11 01:38:06;;;;;;;19.00;7.30;;;;;;;2.36;100.00;97578.82;436362;1247;107162;-39
2023/12/11 01:48:14;;;;;;;23.50;9.60;;;;;;;2.33;100.00;97570.16;436287;1248;97970;-39
2023/12/11 01:58:22;;;;;;;20.90;6.30;;;;;;;2.28;100.00;97558.92;436371;1251;112087;-39
2023/12/11 02:18:33;;;;;;;11.60;7.10;;;;;;;2.40;100.00;97516.46;436531;1251;98835;-39
2023/12/11 02:28:41;;;;;;;9.80;4.40;;;;;;;2.47;100.00;97508.41;437645;1246;108223;-40
2023/12/11 02:38:49;;;;;;;13.90;6.50;;;;;;;2.50;100.00;97484.18;437772;1247;99234;-39
2023/12/11 02:48:57;;;;;;;14.30;4.80;;;;;;;2.51;100.00;97474.76;437902;1248;111435;-40
2023/12/11 02:59:05;;;;;;;23.10;4.70;;;;;;;2.64;100.00;97479.02;437279;1248;107020;-39
2023/12/11 03:09:12;;;;;;;13.00;5.40;;;;;;;2.75;100.00;97462.56;437288;1251;101592;-39
2023/12/11 03:19:18;;;;;;;14.10;6.10;;;;;;;2.81;100.00;97451.23;437291;1250;108583;-39
2023/12/11 03:29:24;;;;;;;11.90;4.70;;;;;;;2.83;99.90;97418.48;437293;1251;99211;-39
2023/12/11 03:39:31;;;;;;;9.80;4.30;;;;;;;2.83;99.79;97441.08;437059;1251;111472;-39
2023/12/11 03:49:36;;;;;;;13.20;4.60;;;;;;;2.90;99.91;97440.73;437229;1246;108574;-39
2023/12/11 03:59:43;;;;;;;20.00;6.90;;;;;;;2.93;99.88;97417.05;437246;1247;98910;-39
2023/12/11 04:09:49;;;;;;;16.30;6.20;;;;;;;2.86;99.70;97407.50;437290;1250;107875;-39
2023/12/11 04:19:57;;;;;;;18.40;6.30;;;;;;;2.80;99.28;97411.77;437272;1247;99333;-39
2023/12/11 04:30:06;;;;;;;22.40;7.70;;;;;;;2.74;99.44;97409.29;437428;1250;111215;-41
2023/12/11 04:40:14;;;;;;;20.90;10.70;;;;;;;2.64;99.53;97399.23;437213;1250;109054;-38
2023/12/11 04:50:21;;;;;;;20.50;10.80;;;;;;;2.49;99.49;97391.67;437372;1247;98712;-40
2023/12/11 05:00:28;;;;;;;24.80;11.00;;;;;;;2.46;99.38;97377.27;437160;1247;107471;-40
2023/12/11 05:10:35;;;;;;;21.80;8.30;;;;;;;2.45;99.50;97365.36;437245;1257;99330;-40
2023/12/11 05:20:42;;;;;;;22.10;9.20;;;;;;;2.52;99.47;97359.74;437286;1250;112694;-38
2023/12/11 05:30:49;;;;;;;24.90;8.90;;;;;;;2.63;99.53;97335.43;437259;1250;107984;-39
2023/12/11 05:40:56;;;;;;;12.50;5.60;;;;;;;2.86;99.03;97329.08;437416;1247;98014;-40
2023/12/11 05:51:04;;;;;;;13.30;6.60;;;;;;;3.05;98.18;97302.02;437231;1256;108379;-40
2023/12/11 06:01:11;;;;;;;25.40;9.10;;;;;;;3.04;97.85;97296.00;437437;1247;98329;-40
2023/12/11 06:11:17;;;;;;;15.50;7.40;;;;;;;3.04;97.24;97294.23;437304;1250;111775;-39
2023/12/11 06:31:31;;;;;;;17.60;8.20;;;;;;;2.93;96.62;97299.12;437308;1250;98003;-38
2023/12/11 06:41:39;;;;;;;16.20;7.40;;;;;;;2.80;96.31;97308.41;437117;1248;111598;-40
2023/12/11 06:51:45;;;;;;;15.10;7.00;;;;;;;2.74;95.74;97305.91;437201;1250;108407;-41
2023/12/11 07:01:53;;;;;;;11.20;5.70;;;;;;;2.73;95.52;97306.25;437133;1250;99212;-40
2023/12/11 07:12:01;;;;;;;13.80;7.00;;;;;;;2.75;95.49;97314.35;437296;1247;106765;-40
2023/12/11 07:22:05;;;;;;;9.30;5.50;;;;;;;2.73;95.27;97321.98;437226;1250;99304;-41
2023/12/11 07:42:18;;;;;;;15.00;7.40;;;;;;;2.76;95.54;97339.35;437367;1248;107251;-39
2023/12/11 07:52:25;;;;;;;11.30;5.20;;;;;;;2.74;95.60;97322.38;437303;1250;98919;-38
2023/12/11 08:02:35;;;;;;;10.50;5.70;;;;;;;2.82;95.75;97326.79;437180;1247;107713;-40
2023/12/11 08:12:42;;;;;;;12.00;5.60;;;;;;;2.98;96.05;97331.48;437197;1247;98581;-40
2023/12/11 08:22:49;;;;;;;15.20;6.90;;;;;;;3.10;96.23;97338.99;437161;1250;110912;-39
2023/12/11 08:32:56;;;;;;;10.20;6.70;;;;;;;3.24;96.24;97329.70;437135;1247;107991;-41
2023/12/11 08:43:04;;;;;;;14.70;5.30;;;;;;;3.37;96.06;97333.14;437215;1250;98053;-40
2023/12/11 08:53:11;;;;;;;17.70;7.30;;;;;;;3.53;96.15;97331.45;437296;1250;108917;-40
2023/12/11 09:03:18;;;;;;;11.90;6.60;;;;;;;3.64;96.07;97333.52;437510;1247;98412;-40
2023/12/11 09:13:26;;;;;;;11.40;6.60;;;;;;;3.79;95.89;97331.59;437469;1247;111732;-40
2023/12/11 09:23:36;;;;;;;12.10;6.90;;;;;;;3.86;95.93;97323.55;437386;1250;107025;-40
2023/12/11 09:33:43;;;;;;;10.80;6.10;;;;;;;3.87;95.91;97316.73;437462;1248;98399;-40
2023/12/11 09:43:50;;;;;;;9.50;5.10;;;;;;;4.01;95.48;97311.34;437326;1250;108487;-41
2023/12/11 10:04:07;;;;;;;11.80;7.80;;;;;;;4.34;95.57;97285.13;437603;1250;113236;-39
2023/12/11 10:14:15;;;;;;;13.70;6.10;;;;;;;4.59;95.28;97267.52;437707;1247;107619;-39
2023/12/11 10:24:21;;;;;;;10.50;6.80;;;;;;;4.91;95.16;97263.27;437441;1250;99213;-40
2023/12/11 10:34:41;;;;;;;13.10;7.00;;;;;;;5.10;95.25;97261.05;437579;1247;108133;-39
2023/12/11 10:44:49;;;;;;;12.00;6.30;;;;;;;5.19;95.09;97261.26;437344;1248;99323;-40
2023/12/11 10:55:01;;;;;;;13.20;6.60;;;;;;;5.29;94.46;97252.49;437423;1250;111887;-40
2023/12/11 11:05:09;;;;;;;10.80;6.20;;;;;;;5.59;94.48;97241.65;437345;1248;108489;-39
2023/12/11 11:15:21;;;;;;;10.80;5.80;;;;;;;5.98;94.59;97230.06;437985;1248;99269;-40
2023/12/11 11:25:32;;;;;;;12.80;6.40;;;;;;;6.20;94.23;97230.35;437435;1250;106983;-40
2023/12/11 11:35:52;;;;;;;7.30;5.10;;;;;;;6.26;93.56;97213.56;437309;1248;99221;-40
2023/12/11 11:45:58;;;;;;;;;;;;;;;6.27;93.18;97204.91;437346;1250;110824;-40
2023/12/11 11:56:06;;;;;;;10.80;6.20;;;;;;;6.14;93.14;97206.41;437901;1250;109355;-40
2023/12/11 12:16:28;;;;;;;11.20;5.50;;;;;;;6.07;92.51;97188.19;437343;1250;111244;-40
2023/12/11 12:26:37;;;;;;;12.10;6.00;;;;;;;6.07;92.00;97177.54;437386;1250;107696;-40
2023/12/11 12:46:50;;;;;;;9.60;6.10;;;;;;;5.97;91.33;97170.50;436939;1250;647663;-39
2023/12/11 12:56:57;;;;;;;13.10;5.50;;;;;;;5.98;90.61;97173.34;437813;1250;99241;-40
2023/12/11 13:07:10;;;;;;;13.60;7.50;;;;;;;5.85;90.82;97172.76;439000;1250;111119;-39
2023/12/11 13:17:16;;;;;;;14.50;6.20;;;;;;;5.58;90.63;97184.11;438454;1250;107426;-39
2023/12/11 13:27:25;;;;;;;12.70;6.40;;;;;;;5.42;90.40;97175.67;438227;1250;99224;-41
2023/12/11 13:37:33;;;;;;;14.20;7.30;;;;;;;5.26;90.55;97173.50;437656;1247;108444;-42
2023/12/11 14:17:58;;;;;;;12.90;8.20;;;;;;;4.84;90.84;97194.77;437615;1250;99227;-39
2023/12/11 14:38:11;;;;;;;15.90;8.70;;;;;;;4.56;91.30;97195.39;437532;1247;98009;-39
2023/12/11 14:48:19;;;;;;;13.30;8.30;;;;;;;4.55;91.26;97199.77;437473;1250;112960;-40
2023/12/11 14:58:25;;;;;;;19.10;9.40;;;;;;;4.55;91.36;97205.61;437315;1248;108774;-38
2023/12/11 15:08:32;;;;;;;21.30;11.90;;;;;;;4.54;91.49;97202.81;437470;1248;98292;-39
2023/12/11 15:18:40;;;;;;;23.00;11.70;;;;;;;4.45;91.82;97205.31;437389;1250;107123;-40
2023/12/11 15:28:47;;;;;;;16.10;9.10;;;;;;;4.43;91.94;97187.83;437540;1251;99186;-38
2023/12/11 15:38:54;;;;;;;15.90;8.10;;;;;;;4.47;91.98;97178.77;437966;1257;110701;-40
2023/12/11 15:49:01;;;;;;;20.10;9.30;;;;;;;4.48;92.17;97169.22;437637;1250;109372;-39
2023/12/11 15:59:07;;;;;;;21.50;11.70;;;;;;;4.37;92.33;97159.86;437219;1260;99324;-39
2023/12/11 16:19:18;;;;;;;15.70;11.00;;;;;;;4.15;92.55;97160.27;438437;1250;99210;-40
2023/12/11 16:29:26;;;;;;;14.60;9.30;;;;;;;4.19;92.95;97155.13;437536;1250;112131;-39
2023/12/11 16:39:33;;;;;;;20.10;10.90;;;;;;;4.25;93.04;97157.21;437351;1248;107424;-39
2023/12/11 16:49:40;;;;;;;21.50;12.40;;;;;;;4.29;93.40;97150.01;437466;1250;99243;-40
2023/12/11 17:00:09;;;;;;;13.60;8.00;;;;;;;4.21;93.45;97136.03;437436;1260;108847;-39
2023/12/11 17:10:16;;;;;;;15.20;7.90;;;;;;;4.26;93.57;97138.62;437176;1253;99215;-41
2023/12/11 17:20:23;;;;;;;17.20;9.00;;;;;;;4.30;93.90;97134.38;437451;1252;111927;-39
2023/12/11 17:30:30;;;;;;;15.00;9.70;;;;;;;4.32;94.12;97126.66;437472;1248;108211;-40
2023/12/11 17:50:43;;;;;;;32.30;15.70;;;;;;;4.23;94.58;97114.83;437413;1251;108600;-40
2023/12/11 18:00:50;;;;;;;20.20;11.20;;;;;;;4.12;95.06;97115.36;437427;1250;99205;-39
2023/12/11 18:10:58;;;;;;;17.00;10.80;;;;;;;4.13;94.99;97104.91;437508;1251;111317;-39
2023/12/11 18:51:25;;;;;;;24.80;12.30;;;;;;;4.13;95.85;97093.63;437389;1247;99205;-39
2023/12/11 19:01:32;;;;;;;16.10;10.30;;;;;;;4.13;96.07;97091.52;437250;1251;110130;-38
2023/12/11 19:11:40;;;;;;;25.80;12.70;;;;;;;4.11;96.40;97094.35;437479;1255;107773;-39
2023/12/11 19:31:53;;;;;;;21.60;12.60;;;;;;;4.04;96.77;97102.40;437373;1250;107461;-39
2023/12/11 19:42:00;;;;;;;19.10;13.00;;;;;;;4.06;96.98;97095.40;437377;1261;99208;-39
2023/12/11 19:52:07;;;;;;;22.60;14.60;;;;;;;4.07;97.15;97097.52;437423;1254;110786;-39
2023/12/11 20:02:14;;;;;;;21.30;12.70;;;;;;;4.09;97.23;97090.19;439198;1250;108451;-40
2023/12/11 20:12:21;;;;;;;19.10;12.90;;;;;;;4.09;97.41;97070.56;438785;1248;99225;-38
2023/12/11 20:22:29;;;;;;;18.50;12.60;;;;;;;4.11;97.84;97062.23;439549;1248;107743;-40
2023/12/11 20:32:36;;;;;;;15.10;9.40;;;;;;;4.12;98.09;97059.32;439172;1250;99206;-39
2023/12/11 20:42:44;;;;;;;18.70;10.70;;;;;;;4.12;98.16;97065.55;438589;1248;110669;-38
2023/12/11 21:02:59;;;;;;;19.20;11.30;;;;;;;4.18;98.54;97085.09;439653;1250;97945;-39
2023/12/11 21:13:10;;;;;;;19.20;10.20;;;;;;;4.21;98.74;97084.84;439909;1247;106931;-40
2023/12/11 21:23:17;;;;;;;17.00;9.60;;;;;;;4.24;98.78;97092.82;439747;1251;99263;-39
2023/12/11 21:33:24;;;;;;;15.70;9.10;;;;;;;4.28;99.21;97088.29;437919;1250;110775;-40
2023/12/11 21:43:31;;;;;;;17.10;9.30;;;;;;;4.28;99.10;97091.79;438793;1247;106356;-38
2023/12/11 21:53:39;;;;;;;14.50;9.20;;;;;;;4.31;99.25;97097.13;437612;1251;99304;-40
2023/12/11 22:03:46;;;;;;;16.60;8.90;;;;;;;4.29;99.29;97107.66;437507;1250;108052;-41
2023/12/11 22:13:53;;;;;;;14.40;9.20;;;;;;;4.34;99.46;97110.75;437407;1250;99243;-40
2023/12/11 22:24:00;;;;;;;14.30;8.50;;;;;;;4.40;99.69;97120.77;437225;1248;112928;-44
2023/12/11 22:34:08;;;;;;;15.20;10.10;;;;;;;4.39;99.59;97127.34;437264;1247;108302;-40
2023/12/11 22:44:15;;;;;;;17.70;10.00;;;;;;;4.42;99.89;97135.66;437277;1247;99395;-39
2023/12/11 22:54:21;;;;;;;14.20;7.80;;;;;;;4.45;99.94;97144.06;437021;1250;106924;-39
2023/12/11 23:04:27;;;;;;;9.90;6.60;;;;;;;4.54;100.00;97154.71;437288;1246;99247;-39
2023/12/11 23:24:41;;;;;;;13.40;7.20;;;;;;;4.67;100.00;97138.39;437796;1247;107689;-40
2023/12/11 23:34:48;;;;;;;9.90;7.20;;;;;;;4.71;100.00;97136.54;437269;1250;98820;-40
2023/12/11 23:44:55;;;;;;;9.80;4.90;;;;;;;4.80;100.00;97142.52;437147;1247;107927;-40
2023/12/11 23:55:03;;;;;;;7.50;3.20;;;;;;;4.90;100.00;97155.29;437146;1250;97987;-40
